Edwards Creek Valley, Nevada Weather observations

Data are for observation ending at time listed.
 Day   Time    Ave.   Ave.  Ave.  Vector   Max.   Stn.    Total    Solar   Ave.  
  of    of     Air    Rel.  Wind   Wind    Wind   Baro.  Precip.   Rad.    Soil  
Year   Day     Temp.  Hum.  Speed  Dir.    Gust   Pres.                    Temp. 
2016   (PST)    F      %     mph   deg.    mph     mb.     in.     W/m2     F   
------------------------------------------------------------------------------
  42    0:00   31.1    87    2.3   210      4.0    854     0.00       0     35.0
  42    0:10   31.7    86    3.2   214      4.9    854     0.00       0     34.9
  42    0:20   31.0    87    3.2   219      5.0    854     0.00       0     34.8
  42    0:30   31.1    87    3.0   210      4.7    854     0.00       0     34.7
  42    0:40   30.9    87    2.0   199      3.4    854     0.00       0     34.6
  42    0:50   30.7    88    3.8   189      5.6    854     0.00       0     34.5
  42    1:00   30.9    87    4.8   181      6.1    854     0.00       0     34.4
  42    1:10   31.5    86    4.1   166      6.6    854     0.00       0     34.3
  42    1:20   31.5    85    2.3   102      3.1    854     0.00       0     34.2
  42    1:30   30.6    66    2.6   335      4.4    854     0.00       0     34.2
  42    1:40   30.0    66    2.3   318      3.5    854     0.00       0     34.1
  42    1:50   29.8    66    1.3   352      2.4    854     0.00       0     34.0
  42    2:00   29.7    66    0.4   342      1.7    854     0.00       0     34.0
  42    2:10   29.3    66    0.3   103      1.5    854     0.00       0     33.9
  42    2:20   29.7    66    0.0   103      0.1    854     0.00       0     33.8
  42    2:30   30.1    66    0.0   103      0.1    854     0.00       0     33.7
  42    2:40   29.6    66    0.4   103      1.5    854     0.00       0     33.7
  42    2:50   28.9    66    1.0   203      2.0    853     0.00       0     33.7
  42    3:00   28.7    66    1.8   206      3.2    853     0.00       0     33.6
  42    3:10   28.3    66    2.6   187      3.7    853     0.00       0     33.6
  42    3:20   28.2    66    2.2   182      3.0    853     0.00       0     33.5
  42    3:30   28.1    66    2.4   170      3.4    853     0.00       0     33.5
  42    3:40   28.3    66    1.7   146      2.8    853     0.00       0     33.4
  42    3:50   28.4    66    2.1   148      2.5    853     0.00       0     33.4
  42    4:00   28.6    66    1.8   208      2.9    853     0.00       0     33.3
  42    4:10   28.5    66    1.7   200      2.5    853     0.00       0     33.3
  42    4:20   28.4    66    2.0   190      3.7    853     0.00       0     33.3
  42    4:30   28.3    66    1.8   206      3.0    853     0.00       0     33.2
  42    4:40   28.7    66    1.9   201      3.3    853     0.00       0     33.2
  42    4:50   29.2    66    2.4   190      3.8    853     0.00       0     33.2
  42    5:00   29.4    66    1.9   193      4.0    853     0.00       0     33.1
  42    5:10   29.4    66    1.9   223      3.5    853     0.00       0     33.1
  42    5:20   28.9    66    1.9   221      2.8    853     0.00       0     33.1
  42    5:30   28.8    66    2.2   186      3.8    853     0.00       0     33.0
  42    5:40   29.0    66    1.2   204      2.4    853     0.00       0     33.0
  42    5:50   29.2    66    2.0   185      2.9    853     0.00       0     33.0
  42    6:00   29.5    66    2.2   204      3.1    853     0.00       0     33.0
  42    6:10   28.6    66    2.1   227      2.8    853     0.00       0     32.9
  42    6:20   28.2    66    1.7   208      2.9    853     0.00       0     32.9
  42    6:30   28.2    66    2.0   207      2.7    853     0.00       0     32.9
  42    6:40   28.1    66    2.0   218      2.7    853     0.00       1     32.9
  42    6:50   27.9    66    1.8   206      2.9    853     0.00       4     32.8
  42    7:00   28.2    66    1.7   204      2.6    853     0.00       8     32.8
  42    7:10   28.3    66    1.8   208      2.5    853     0.00      17     32.8
  42    7:20   28.3    66    1.9   225      2.9    853     0.00      44     32.8
  42    7:30   29.6    66    1.2   208      2.1    853     0.00      79     32.7
  42    7:40   31.1    66    1.5   165      2.3    853     0.00     106     32.7
  42    7:50   33.2    66    0.9   169      1.7    853     0.00     172     32.7
  42    8:00   35.3    65    0.7   230      2.0    853     0.00     208     32.7
  42    8:10   35.6    66    1.0   265      1.9    853     0.00     224     32.7
  42    8:20   36.1    66    1.0   287      2.0    853     0.00     243     32.7
  42    8:30   36.9    66    0.9   289      1.7    853     0.00     246     32.7
  42    8:40   37.7    65    0.6   281      1.5    854     0.00     247     32.7
  42    8:50   38.4    66    0.0   254      0.7    854     0.00     252     32.8
  42    9:00   39.7    65    0.7   218      2.0    853     0.00     288     32.8
  42    9:10   40.1    65    0.8   238      2.3    853     0.00     331     32.8
  42    9:20   40.7    65    1.1   271      2.5    854     0.00     387     32.8
  42    9:30   40.9    63    2.0   319      3.6    854     0.00     407     32.8
  42    9:40   40.7    63    2.0   326      3.7    854     0.00     392     32.9
  42    9:50   40.7    63    1.6   349      3.0    854     0.00     393     33.0
  42   10:00   41.0    65    2.2    14      3.9    854     0.00     425     33.3
  42   10:10   41.5    66    2.4     4      3.7    853     0.00     450     33.7
  42   10:20   42.3    65    1.7     6      3.3    854     0.00     442     34.4
  42   10:30   43.3    63    1.8     2      3.6    854     0.00     475     35.0
  42   10:40   44.4    59    1.5   342      4.2    854     0.00     497     35.7
  42   10:50   45.0    56    1.6     7      3.8    854     0.00     471     36.4
  42   11:00   45.6    56    2.0    21      4.2    854     0.00     485     37.0
  42   11:10   46.2    57    2.0    24      3.9    853     0.00     535     37.6
  42   11:20   46.6    54    2.6    46      4.6    853     0.00     544     38.0
  42   11:30   47.2    52    2.8    58      4.9    853     0.00     600     38.5
  42   11:40   48.0    50    2.4    35      4.2    853     0.00     577     39.0
  42   11:50   48.8    50    1.8    32      4.2    853     0.00     610     39.6
  42   12:00   49.6    45    2.1    32      4.2    853     0.00     547     40.2
  42   12:10   50.1    45    1.4   358      3.4    853     0.00     465     40.7
  42   12:20   50.4    44    1.7   321      3.1    853     0.00     495     41.2
  42   12:30   51.4    42    1.2   207      3.7    852     0.00     510     41.6
  42   12:40   52.2    42    1.4    45      3.4    852     0.00     494     42.0
  42   12:50   52.1    40    1.0    59      2.6    852     0.00     556     42.4
  42   13:00   53.8    39    0.9   129      3.7    852     0.00     558     42.8
  42   13:10   53.4    41    2.1    70      4.8    852     0.00     545     43.3
  42   13:20   53.8    39    1.4    83      3.9    852     0.00     511     43.7
  42   13:30   53.9    40    2.0    36      3.4    852     0.00     451     44.2
  42   13:40   53.3    41    1.7   342      3.4    852     0.00     297     44.6
  42   13:50   53.6    42    2.2    31      4.6    852     0.00     525     44.9
  42   14:00   54.5    38    1.4     6      3.4    852     0.00     535     45.2
  42   14:10   55.0    37    2.2   307      4.5    852     0.00     391     45.5
  42   14:20   55.5    38    1.5   333      3.2    852     0.00     540     45.8
  42   14:30   55.6    38    2.0    22      3.8    852     0.00     333     46.1
  42   14:40   55.5    36    0.9    33      2.5    853     0.00     205     46.4
  42   14:50   56.1    34    1.8    84      3.5    853     0.00     427     46.6
  42   15:00   55.8    38    2.8    65      4.2    853     0.00     254     46.7
  42   15:10   55.2    36    2.4    50      4.2    853     0.00     235     46.8
  42   15:20   55.2    36    2.4    53      3.9    852     0.00     283     46.9
  42   15:30   56.0    36    1.7    70      2.9    852     0.00     292     46.9
  42   15:40   55.7    36    2.2    24      4.0    852     0.00     250     46.9
  42   15:50   55.7    36    1.7    11      3.3    852     0.00     237     46.9
  42   16:00   56.0    36    1.8    11      3.1    852     0.00     229     46.9
  42   16:10   55.9    37    2.4    38      4.2    852     0.00     195     46.9
  42   16:20   55.6    38    1.9    25      3.1    852     0.00     182     46.8
  42   16:30   56.3    35    0.8    14      2.0    853     0.00     161     46.7
  42   16:40   56.4    34    0.9    56      1.8    853     0.00     138     46.5
  42   16:50   56.3    35    0.2    67      1.3    852     0.00      83     46.3
  42   17:00   55.1    40    1.9    92      2.7    853     0.00      52     46.1
  42   17:10   53.3    45    2.6   123      3.0    853     0.00      21     45.9
  42   17:20   51.9    52    1.8   120      2.8    853     0.00       8     45.6
  42   17:30   50.1    52    2.1   125      2.7    853     0.00       2     45.3
  42   17:40   50.2    46    1.5   120      2.0    853     0.00       1     44.9
  42   17:50   49.8    45    2.0   143      4.2    853     0.00       0     44.6
  42   18:00   46.2    64    3.1   188      6.1    853     0.00       0     44.3
  42   18:10   46.4    62    4.8   182      6.8    853     0.00       0     44.0
  42   18:20   45.1    65    4.9   184      7.1    853     0.00       0     43.7
  42   18:30   43.4    69    5.3   170      7.0    853     0.00       0     43.3
  42   18:40   42.7    71    5.3   167      6.0    854     0.00       0     43.1
  42   18:50   42.4    69    5.4   172      7.7    853     0.00       0     42.8
  42   19:00   42.3    66    6.0   179      7.6    853     0.00       0     42.5
  42   19:10   41.3    66    5.1   189      9.8    853     0.00       0     42.2
  42   19:20   41.2    64    5.4   185      9.2    853     0.00       0     42.0
  42   19:30   39.6    70    1.5   197      3.2    853     0.00       0     41.7
  42   19:40   37.7    74    2.2   212      3.8    853     0.00       0     41.5
  42   19:50   36.8    78    3.8   192      6.3    853     0.00       0     41.2
  42   20:00   37.2    79    4.9   178      6.1    853     0.00       0     41.0
  42   20:10   38.0    75    4.7   169      5.6    853     0.00       0     40.7
  42   20:20   37.7    74    2.6   186      4.8    853     0.00       0     40.5
  42   20:30   37.5    73    3.9   176      5.1    854     0.00       0     40.2
  42   20:40   36.9    74    3.0   159      5.8    854     0.00       0     40.0
  42   20:50   36.8    74    3.1   187      4.4    854     0.00       0     39.8
  42   21:00   35.3    76    2.7   280      4.1    854     0.00       0     39.6
  42   21:10   33.6    81    2.0   234      2.8    854     0.00       0     39.4
  42   21:20   33.4    81    1.7   196      2.9    854     0.00       0     39.1
  42   21:30   32.6    83    1.8   187      2.9    854     0.00       0     38.9
  42   21:40   33.0    84    2.0   206      4.2    854     0.00       0     38.7
  42   21:50   35.5    79    1.9   197      3.4    854     0.00       0     38.5
  42   22:00   34.4    79    4.0   187      5.4    853     0.00       0     38.3
  42   22:10   33.2    83    4.3   187      5.4    853     0.00       0     38.1
  42   22:20   32.9    83    3.8   184      4.8    853     0.00       0     37.9
  42   22:30   32.2    84    3.3   182      4.0    854     0.00       0     37.7
  42   22:40   31.7    84    2.1   182      3.3    853     0.00       0     37.6
  42   22:50   31.0    85    1.3   187      2.1    853     0.00       0     37.4
  42   23:00   30.6    86    1.6   174      2.9    854     0.00       0     37.2
  42   23:10   30.7    87    0.9   168      2.9    854     0.00       0     37.0
  42   23:20   31.0    87    0.6   245      2.0    854     0.00       0     36.8

Return to Carson Sink graphs page.


Western Regional Climate Center,wrcc@dri.edu